createdAt,value
2023-03-31T00:01:57.934Z,18.44
2023-03-31T00:04:26.157Z,18.43
2023-03-31T00:06:54.386Z,18.42
2023-03-31T00:09:22.492Z,18.42
2023-03-31T00:11:50.952Z,18.43
2023-03-31T00:14:21.160Z,18.44
2023-03-31T00:16:48.527Z,18.42
2023-03-31T00:19:18.813Z,18.42
2023-03-31T00:21:48.743Z,18.41
2023-03-31T00:24:16.662Z,18.41
2023-03-31T00:26:44.527Z,18.41
2023-03-31T00:29:14.116Z,18.42
2023-03-31T00:31:41.504Z,18.39
2023-03-31T00:34:08.835Z,18.40
2023-03-31T00:36:45.970Z,18.39
2023-03-31T00:39:15.966Z,18.38
2023-03-31T00:41:43.652Z,18.39
2023-03-31T00:44:27.341Z,18.37
2023-03-31T00:47:14.155Z,18.37
2023-03-31T00:49:47.644Z,18.33
2023-03-31T00:52:31.046Z,18.33
2023-03-31T00:55:07.636Z,18.33
2023-03-31T00:57:39.580Z,18.34
2023-03-31T01:00:18.609Z,18.33
2023-03-31T01:02:56.169Z,18.32
2023-03-31T01:05:36.723Z,18.31
2023-03-31T01:08:06.831Z,18.30
2023-03-31T01:10:41.621Z,18.31
2023-03-31T01:13:10.927Z,18.29
2023-03-31T01:15:39.229Z,18.32
2023-03-31T01:18:10.115Z,18.29
2023-03-31T01:21:14.964Z,18.30
2023-03-31T01:24:51.926Z,18.26
2023-03-31T01:27:43.810Z,18.23
2023-03-31T01:30:52.917Z,18.20
2023-03-31T01:34:03.959Z,18.20
2023-03-31T01:37:39.257Z,18.17
2023-03-31T01:41:01.076Z,18.14
2023-03-31T01:43:37.737Z,18.15
2023-03-31T01:46:29.075Z,18.13
2023-03-31T01:49:20.770Z,18.14
2023-03-31T01:52:11.576Z,18.14
2023-03-31T01:55:25.827Z,18.10
2023-03-31T01:58:14.713Z,18.11
2023-03-31T02:01:09.712Z,18.12
2023-03-31T02:03:46.116Z,18.12
2023-03-31T02:06:20.044Z,18.12
2023-03-31T02:09:01.238Z,18.11
2023-03-31T02:11:31.933Z,18.12
2023-03-31T02:14:02.119Z,18.13
2023-03-31T02:16:33.511Z,18.12
2023-03-31T02:19:05.693Z,18.13
2023-03-31T02:21:36.922Z,18.12
2023-03-31T02:24:13.185Z,18.13
2023-03-31T02:27:05.367Z,18.13
2023-03-31T02:29:33.594Z,18.11
2023-03-31T02:32:23.105Z,18.12
2023-03-31T02:34:54.779Z,18.12
2023-03-31T02:37:22.469Z,18.11
2023-03-31T02:39:54.225Z,18.10
2023-03-31T02:42:22.460Z,18.11
2023-03-31T02:44:53.046Z,18.10
2023-03-31T02:47:22.436Z,18.09
2023-03-31T02:49:55.162Z,18.09
2023-03-31T02:52:56.544Z,18.10
2023-03-31T02:55:37.640Z,18.08
2023-03-31T02:58:39.923Z,18.05
2023-03-31T03:01:42.327Z,18.06
2023-03-31T03:04:41.795Z,18.04
2023-03-31T03:07:22.530Z,18.04
2023-03-31T03:10:03.449Z,18.04
2023-03-31T03:12:45.809Z,18.03
2023-03-31T03:15:42.119Z,18.00
2023-03-31T03:18:09.716Z,17.99
2023-03-31T03:20:36.736Z,18.01
2023-03-31T03:23:03.978Z,18.01
2023-03-31T03:25:30.969Z,18.01
2023-03-31T03:27:57.932Z,18.00
2023-03-31T03:30:25.128Z,18.02
2023-03-31T03:32:52.446Z,18.00
2023-03-31T03:35:19.994Z,18.01
2023-03-31T03:37:47.096Z,18.01
2023-03-31T03:40:15.308Z,18.01
2023-03-31T03:42:42.630Z,18.00
2023-03-31T03:45:10.540Z,18.02
2023-03-31T03:47:37.851Z,18.01
2023-03-31T03:50:06.205Z,18.01
2023-03-31T03:52:33.555Z,17.99
2023-03-31T03:55:01.811Z,18.01
2023-03-31T03:57:28.888Z,18.00
2023-03-31T03:59:56.179Z,18.00
2023-03-31T04:02:24.017Z,17.99
2023-03-31T04:04:52.887Z,17.98
2023-03-31T04:07:20.294Z,17.98
2023-03-31T04:09:47.625Z,17.99
2023-03-31T04:12:14.597Z,17.98
2023-03-31T04:14:41.579Z,17.96
2023-03-31T04:17:10.551Z,17.96
2023-03-31T04:19:38.534Z,17.97
2023-03-31T04:22:05.800Z,17.96
2023-03-31T04:24:33.410Z,17.95
2023-03-31T04:27:03.440Z,17.94
2023-03-31T04:29:33.693Z,17.95
2023-03-31T04:32:01.437Z,17.95
2023-03-31T04:34:35.561Z,17.93
2023-03-31T04:37:03.438Z,17.93
2023-03-31T04:39:31.198Z,17.93
2023-03-31T04:42:00.282Z,17.93
2023-03-31T04:44:27.850Z,17.92
2023-03-31T04:46:55.638Z,17.93
2023-03-31T04:49:23.015Z,17.92
2023-03-31T04:51:50.411Z,17.92
2023-03-31T04:54:17.615Z,17.92
2023-03-31T04:56:44.857Z,17.93
2023-03-31T04:59:12.103Z,17.91
2023-03-31T05:01:39.331Z,17.91
2023-03-31T05:04:06.619Z,17.91
2023-03-31T05:06:34.132Z,17.91
2023-03-31T05:09:01.437Z,17.91
2023-03-31T05:11:29.220Z,17.93
2023-03-31T05:13:56.691Z,17.92
2023-03-31T05:16:24.482Z,17.91
2023-03-31T05:18:52.071Z,17.93
2023-03-31T05:21:21.469Z,17.93
2023-03-31T05:23:49.333Z,17.92
2023-03-31T05:26:16.901Z,17.93
2023-03-31T05:28:44.415Z,17.95
2023-03-31T05:31:13.084Z,17.94
2023-03-31T05:33:42.170Z,17.94
2023-03-31T05:36:12.994Z,17.96
2023-03-31T05:38:40.982Z,17.97
2023-03-31T05:41:09.512Z,17.98
2023-03-31T05:43:39.263Z,17.97
2023-03-31T05:46:07.040Z,17.99
2023-03-31T05:48:34.855Z,17.99
2023-03-31T05:51:02.069Z,17.98
2023-03-31T05:53:29.513Z,17.98
2023-03-31T05:56:07.144Z,17.99
2023-03-31T05:58:36.525Z,17.98
2023-03-31T06:01:13.349Z,17.98
2023-03-31T06:03:42.247Z,17.98
2023-03-31T06:06:12.920Z,17.97
2023-03-31T06:08:40.228Z,17.99
2023-03-31T06:11:10.994Z,17.99
2023-03-31T06:13:40.767Z,17.99
2023-03-31T06:16:08.449Z,17.98
2023-03-31T06:18:36.712Z,18.01
2023-03-31T06:21:04.624Z,18.02
2023-03-31T06:23:32.484Z,18.00
2023-03-31T06:26:03.823Z,18.01
2023-03-31T06:28:39.642Z,18.04
2023-03-31T06:31:23.336Z,18.03
2023-03-31T06:34:01.304Z,18.03
2023-03-31T06:36:33.757Z,18.06
2023-03-31T06:39:29.574Z,18.06
2023-03-31T06:42:35.348Z,18.04
2023-03-31T06:45:46.542Z,18.05
2023-03-31T06:48:17.969Z,18.05
2023-03-31T06:50:55.578Z,18.05
2023-03-31T06:53:23.174Z,18.10
2023-03-31T06:55:50.726Z,18.10
2023-03-31T06:58:18.111Z,18.11
2023-03-31T07:00:46.289Z,18.12
2023-03-31T07:03:14.727Z,18.13
2023-03-31T07:05:41.975Z,18.15
2023-03-31T07:08:12.080Z,18.16
2023-03-31T07:10:39.673Z,18.16
2023-03-31T07:13:07.492Z,18.16
2023-03-31T07:15:34.864Z,18.18
2023-03-31T07:18:02.675Z,18.19
2023-03-31T07:20:31.324Z,18.21
2023-03-31T07:22:58.690Z,18.20
2023-03-31T07:25:25.985Z,18.20
2023-03-31T07:27:53.393Z,18.21
2023-03-31T07:30:21.837Z,18.23
2023-03-31T07:32:51.129Z,18.26
2023-03-31T07:35:19.687Z,18.24
2023-03-31T07:37:48.754Z,18.24
2023-03-31T07:40:25.578Z,18.26
2023-03-31T07:42:53.561Z,18.24
2023-03-31T07:45:23.594Z,18.26
2023-03-31T07:47:52.344Z,18.26
2023-03-31T07:50:20.495Z,18.26
2023-03-31T07:52:51.661Z,18.25
2023-03-31T07:55:20.053Z,18.26
2023-03-31T07:57:47.803Z,18.26
2023-03-31T08:00:16.634Z,18.26
2023-03-31T08:02:44.384Z,18.26
2023-03-31T08:05:14.794Z,18.27
2023-03-31T08:07:45.966Z,18.28
2023-03-31T08:10:21.933Z,18.27
2023-03-31T08:12:49.506Z,18.26
2023-03-31T08:15:17.061Z,18.27
2023-03-31T08:17:46.873Z,18.26
2023-03-31T08:20:14.492Z,18.25
2023-03-31T08:22:41.791Z,18.26
2023-03-31T08:25:10.423Z,18.27
2023-03-31T08:27:40.884Z,18.26
2023-03-31T08:30:11.057Z,18.26
2023-03-31T08:32:39.439Z,18.25
2023-03-31T08:35:08.517Z,18.26
2023-03-31T08:37:38.298Z,18.26
2023-03-31T08:40:13.703Z,18.25
2023-03-31T08:43:14.806Z,18.22
2023-03-31T08:45:47.567Z,18.22
2023-03-31T08:48:45.509Z,18.22
2023-03-31T08:51:39.470Z,18.20
2023-03-31T09:03:54.206Z,18.08
2023-03-31T09:06:42.760Z,18.11
2023-03-31T09:09:26.921Z,18.12
2023-03-31T09:12:07.512Z,18.15
2023-03-31T09:14:41.732Z,18.18
2023-03-31T09:17:18.637Z,18.19
2023-03-31T09:19:56.885Z,18.19
2023-03-31T09:22:32.046Z,18.20
2023-03-31T09:25:11.217Z,18.21
2023-03-31T09:27:42.630Z,18.25
2023-03-31T09:30:24.545Z,18.23
2023-03-31T09:33:20.580Z,18.26
2023-03-31T09:35:49.293Z,18.23
2023-03-31T09:38:17.817Z,18.26
2023-03-31T09:40:45.502Z,18.27
2023-03-31T09:43:28.537Z,18.29
2023-03-31T09:46:09.266Z,18.30
2023-03-31T09:48:38.093Z,18.31
2023-03-31T09:51:08.390Z,18.31
2023-03-31T09:53:40.690Z,18.33
2023-03-31T09:56:11.314Z,18.33
2023-03-31T09:58:51.493Z,18.32
2023-03-31T10:01:18.805Z,18.31
2023-03-31T10:03:56.640Z,18.31
2023-03-31T10:06:25.394Z,18.33
2023-03-31T10:08:57.970Z,18.33
2023-03-31T10:11:27.147Z,18.33
2023-03-31T10:14:05.827Z,18.32
2023-03-31T10:16:53.974Z,18.34
2023-03-31T10:19:27.845Z,18.33
2023-03-31T10:22:17.783Z,18.31
2023-03-31T10:24:46.284Z,18.33
2023-03-31T10:27:37.662Z,18.32
2023-03-31T10:30:10.221Z,18.33
2023-03-31T10:32:43.188Z,18.33
2023-03-31T10:35:30.610Z,18.34
2023-03-31T10:38:05.783Z,18.35
2023-03-31T10:40:36.329Z,18.36
2023-03-31T10:43:12.140Z,18.38
2023-03-31T10:45:48.373Z,18.40
2023-03-31T10:48:26.627Z,18.42
2023-03-31T10:50:58.783Z,18.41
2023-03-31T10:53:27.415Z,18.41
2023-03-31T10:56:16.642Z,18.39
2023-03-31T10:59:06.173Z,18.41
2023-03-31T11:02:04.511Z,18.39
2023-03-31T11:04:59.588Z,18.41
2023-03-31T11:07:51.172Z,18.38
2023-03-31T11:11:16.840Z,18.37
2023-03-31T11:13:55.844Z,18.39
2023-03-31T11:16:47.563Z,18.39
2023-03-31T11:19:24.182Z,18.39
2023-03-31T11:22:11.469Z,18.38
2023-03-31T11:25:00.567Z,18.39
2023-03-31T11:28:21.212Z,18.36
2023-03-31T11:30:56.739Z,18.36
2023-03-31T11:33:51.574Z,18.37
2023-03-31T11:36:36.806Z,18.37
2023-03-31T11:39:39.414Z,18.40
2023-03-31T11:42:19.424Z,18.37
2023-03-31T11:44:53.136Z,18.38
2023-03-31T11:47:26.803Z,18.39
2023-03-31T11:50:12.902Z,18.40
2023-03-31T11:52:51.085Z,18.40
2023-03-31T11:55:25.897Z,18.42
2023-03-31T11:58:30.530Z,18.46
2023-03-31T12:01:07.718Z,18.46
2023-03-31T12:03:53.397Z,18.48
2023-03-31T12:06:25.336Z,18.49
2023-03-31T12:09:27.980Z,18.51
2023-03-31T12:12:21.935Z,18.53
2023-03-31T12:23:19.496Z,18.59
2023-03-31T13:38:05.566Z,19.23
2023-03-31T13:41:06.834Z,19.38
2023-03-31T13:48:35.626Z,19.49
2023-03-31T13:51:35.079Z,19.51
2023-03-31T13:54:59.733Z,19.54
2023-03-31T13:58:24.751Z,19.51
2023-03-31T14:01:36.883Z,19.52
2023-03-31T14:04:38.205Z,19.52
2023-03-31T14:07:44.199Z,19.49
2023-03-31T14:10:38.231Z,19.48
2023-03-31T14:13:14.873Z,19.50
2023-03-31T14:15:57.221Z,19.51
2023-03-31T14:18:38.341Z,19.53
2023-03-31T14:21:34.758Z,19.54
2023-03-31T14:24:56.623Z,19.53
2023-03-31T14:27:45.167Z,19.55
2023-03-31T14:30:42.844Z,19.52
2023-03-31T14:33:34.298Z,19.54
2023-03-31T14:36:26.089Z,19.51
2023-03-31T14:38:53.531Z,19.50
2023-03-31T14:41:31.132Z,19.48
2023-03-31T14:44:05.142Z,19.49
2023-03-31T14:47:29.272Z,19.47
2023-03-31T14:50:17.249Z,19.42
2023-03-31T14:52:52.573Z,19.43
2023-03-31T14:55:28.637Z,19.44
2023-03-31T14:58:04.439Z,19.42
2023-03-31T15:00:33.961Z,19.42
2023-03-31T15:03:04.119Z,19.42
2023-03-31T15:05:36.120Z,19.41
2023-03-31T15:08:07.878Z,19.41
2023-03-31T15:10:46.111Z,19.38
2023-03-31T15:13:22.777Z,19.40
2023-03-31T15:15:49.864Z,19.39
2023-03-31T15:18:18.463Z,19.39
2023-03-31T15:20:46.377Z,19.39
2023-03-31T15:23:28.595Z,19.39
2023-03-31T15:26:05.937Z,19.36
2023-03-31T15:28:47.148Z,19.34
2023-03-31T15:31:17.169Z,19.33
2023-03-31T15:33:44.954Z,19.35
2023-03-31T15:36:13.483Z,19.33
2023-03-31T15:38:41.411Z,19.34
2023-03-31T15:41:14.933Z,19.31
2023-03-31T15:43:42.370Z,19.33
2023-03-31T15:46:25.785Z,19.30
2023-03-31T15:48:56.073Z,19.29
2023-03-31T15:51:43.328Z,19.29
2023-03-31T15:54:42.206Z,19.26
2023-03-31T15:57:16.277Z,19.25
2023-03-31T15:59:56.422Z,19.26
2023-03-31T16:02:27.946Z,19.23
2023-03-31T16:04:59.333Z,19.25
2023-03-31T16:07:34.733Z,19.23
2023-03-31T16:10:10.119Z,19.23
2023-03-31T16:12:54.250Z,19.21
2023-03-31T16:15:33.289Z,19.19
2023-03-31T16:18:28.721Z,19.19
2023-03-31T16:21:00.086Z,19.19
2023-03-31T16:23:32.900Z,19.17
2023-03-31T16:26:01.618Z,19.17
2023-03-31T16:28:37.743Z,19.17
2023-03-31T16:31:07.863Z,19.15
2023-03-31T16:33:56.334Z,19.14
2023-03-31T16:36:23.849Z,19.15
2023-03-31T16:38:54.900Z,19.15
2023-03-31T16:41:28.172Z,19.14
2023-03-31T16:43:56.571Z,19.12
2023-03-31T16:46:25.004Z,19.12
2023-03-31T16:48:55.839Z,19.14
2023-03-31T16:51:23.286Z,19.13
2023-03-31T16:53:50.868Z,19.14
2023-03-31T16:56:19.314Z,19.12
2023-03-31T16:58:47.033Z,19.13
2023-03-31T17:01:14.310Z,19.14
2023-03-31T17:03:43.187Z,19.14
2023-03-31T17:06:13.536Z,19.14
2023-03-31T17:08:41.155Z,19.13
2023-03-31T17:11:12.624Z,19.13
2023-03-31T17:13:42.640Z,19.12
2023-03-31T17:16:47.426Z,19.12
2023-03-31T17:19:23.502Z,19.08
2023-03-31T17:21:51.529Z,19.09
2023-03-31T17:24:18.834Z,19.09
2023-03-31T17:26:47.054Z,19.10
2023-03-31T17:29:15.598Z,19.08
2023-03-31T17:31:47.417Z,19.08
2023-03-31T17:34:14.653Z,19.08
2023-03-31T17:36:44.285Z,19.07
2023-03-31T17:39:12.055Z,19.06
2023-03-31T17:41:41.162Z,19.05
2023-03-31T17:44:08.969Z,19.06
2023-03-31T17:46:37.768Z,19.04
2023-03-31T17:49:32.647Z,19.03
2023-03-31T17:52:06.645Z,19.00
2023-03-31T17:54:34.918Z,19.02
2023-03-31T17:57:02.260Z,18.99
2023-03-31T17:59:29.885Z,18.99
2023-03-31T18:01:57.607Z,18.97
2023-03-31T18:04:25.649Z,18.98
2023-03-31T18:06:54.767Z,18.99
2023-03-31T18:09:22.279Z,18.96
2023-03-31T18:11:49.923Z,18.95
2023-03-31T18:14:17.248Z,18.95
2023-03-31T18:16:44.687Z,18.94
2023-03-31T18:19:12.377Z,18.94
2023-03-31T18:21:39.720Z,18.93
2023-03-31T18:24:07.576Z,18.94
2023-03-31T18:26:36.476Z,18.93
2023-03-31T18:29:03.912Z,18.92
2023-03-31T18:31:31.425Z,18.91
2023-03-31T18:33:58.740Z,18.90
2023-03-31T18:36:27.497Z,18.88
2023-03-31T18:38:56.452Z,18.88
2023-03-31T18:41:25.010Z,18.88
2023-03-31T18:43:52.577Z,18.88
2023-03-31T18:46:20.623Z,18.87
2023-03-31T18:48:50.375Z,18.87
2023-03-31T18:51:18.309Z,18.86
2023-03-31T18:53:45.654Z,18.86
2023-03-31T18:56:13.361Z,18.84
2023-03-31T18:58:40.806Z,18.82
2023-03-31T19:01:08.437Z,18.82
2023-03-31T19:03:35.882Z,18.81
2023-03-31T19:06:09.971Z,18.80
2023-03-31T19:08:37.908Z,18.79
2023-03-31T19:11:14.723Z,18.78
2023-03-31T19:13:43.838Z,18.77
2023-03-31T19:16:13.217Z,18.77
2023-03-31T19:18:41.069Z,18.76
2023-03-31T19:21:08.404Z,18.76
2023-03-31T19:23:35.594Z,18.75
2023-03-31T19:26:03.230Z,18.75
2023-03-31T19:28:30.879Z,18.75
2023-03-31T19:30:59.593Z,18.73
2023-03-31T19:33:27.618Z,18.72
2023-03-31T19:35:54.845Z,18.71
2023-03-31T19:38:22.228Z,18.71
2023-03-31T19:40:49.773Z,18.72
2023-03-31T19:43:21.104Z,18.71
2023-03-31T19:45:49.019Z,18.70
2023-03-31T19:48:16.439Z,18.71
2023-03-31T19:50:52.670Z,18.69
2023-03-31T19:53:20.829Z,18.69
2023-03-31T19:56:03.397Z,18.67
2023-03-31T19:58:37.310Z,18.66
2023-03-31T20:01:15.198Z,18.66
2023-03-31T20:03:43.266Z,18.65
2023-03-31T20:06:14.069Z,18.65
2023-03-31T20:08:43.924Z,18.62
2023-03-31T20:11:16.494Z,18.63
2023-03-31T20:13:44.701Z,18.62
2023-03-31T20:16:17.428Z,18.61
2023-03-31T20:18:49.164Z,18.61
2023-03-31T20:21:19.610Z,18.62
2023-03-31T20:23:47.793Z,18.60
2023-03-31T20:26:19.098Z,18.59
2023-03-31T20:28:47.620Z,18.59
2023-03-31T20:31:17.741Z,18.58
2023-03-31T20:33:46.253Z,18.57
2023-03-31T20:36:20.208Z,18.56
2023-03-31T20:38:53.210Z,18.57
2023-03-31T20:41:24.381Z,18.52
2023-03-31T20:43:52.056Z,18.55
2023-03-31T20:46:19.524Z,18.53
2023-03-31T20:48:51.013Z,18.54
2023-03-31T20:51:24.758Z,18.53
2023-03-31T20:53:54.287Z,18.51
2023-03-31T20:56:29.482Z,18.52
2023-03-31T20:58:59.083Z,18.51
2023-03-31T21:01:32.844Z,18.49
2023-03-31T21:04:05.843Z,18.50
2023-03-31T21:06:41.303Z,18.48
2023-03-31T21:09:09.349Z,18.48
2023-03-31T21:11:36.435Z,18.48
2023-03-31T21:14:03.852Z,18.49
2023-03-31T21:16:30.804Z,18.47
2023-03-31T21:19:01.163Z,18.47
2023-03-31T21:21:28.929Z,18.45
2023-03-31T21:23:56.424Z,18.45
2023-03-31T21:26:24.947Z,18.45
2023-03-31T21:28:56.356Z,18.45
2023-03-31T21:31:25.764Z,18.43
2023-03-31T21:33:56.675Z,18.44
2023-03-31T21:36:24.769Z,18.43
2023-03-31T21:38:54.189Z,18.43
2023-03-31T21:41:30.607Z,18.41
2023-03-31T21:44:00.526Z,18.42
2023-03-31T21:46:32.680Z,18.38
2023-03-31T21:49:01.055Z,18.40
2023-03-31T21:51:28.793Z,18.38
2023-03-31T21:53:56.876Z,18.38
2023-03-31T21:56:27.777Z,18.38
2023-03-31T21:58:55.587Z,18.38
2023-03-31T22:01:23.558Z,18.37
2023-03-31T22:03:51.955Z,18.36
2023-03-31T22:06:19.872Z,18.36
2023-03-31T22:08:46.934Z,18.36
2023-03-31T22:11:14.530Z,18.35
2023-03-31T22:13:41.910Z,18.36
2023-03-31T22:16:22.051Z,18.34
2023-03-31T22:18:50.570Z,18.33
2023-03-31T22:21:26.716Z,18.32
2023-03-31T22:23:59.708Z,18.32
2023-03-31T22:26:29.455Z,18.31
2023-03-31T22:28:56.875Z,18.32
2023-03-31T22:31:25.998Z,18.32
2023-03-31T22:33:53.258Z,18.31
2023-03-31T22:36:20.780Z,18.30
2023-03-31T22:38:48.053Z,18.32
2023-03-31T22:41:15.779Z,18.30
2023-03-31T22:43:45.320Z,18.28
2023-03-31T22:46:14.548Z,18.28
2023-03-31T22:48:41.732Z,18.28
2023-03-31T22:51:11.773Z,18.28
2023-03-31T22:53:40.463Z,18.27
2023-03-31T22:56:11.830Z,18.26
2023-03-31T22:58:39.330Z,18.28
2023-03-31T23:01:07.198Z,18.27
2023-03-31T23:03:34.424Z,18.25
2023-03-31T23:06:06.129Z,18.24
2023-03-31T23:08:35.717Z,18.26
2023-03-31T23:11:06.071Z,18.24
2023-03-31T23:13:33.700Z,18.23
2023-03-31T23:16:12.509Z,18.22
2023-03-31T23:18:44.595Z,18.23
2023-03-31T23:21:13.846Z,18.23
2023-03-31T23:23:42.237Z,18.22
2023-03-31T23:26:09.550Z,18.20
2023-03-31T23:28:38.362Z,18.21
2023-03-31T23:31:06.294Z,18.22
2023-03-31T23:33:33.550Z,18.20
2023-03-31T23:36:03.908Z,18.19
2023-03-31T23:38:32.416Z,18.19
2023-03-31T23:41:02.277Z,18.19
2023-03-31T23:43:30.330Z,18.19
2023-03-31T23:45:57.551Z,18.18
2023-03-31T23:48:24.697Z,18.18
2023-03-31T23:50:52.125Z,18.20
2023-03-31T23:53:19.294Z,18.18
2023-03-31T23:56:07.557Z,18.18
2023-03-31T23:58:35.588Z,18.16
